Time;durP1;ratioP1;P1;durP2;ratioP2;P2;SDS_P1;SDS_P2;PMS_P1;PMS_P2;Temp;Humidity;BMP_temperature;BMP_pressure;BME280_temperature;BME280_humidity;BME280_pressure;Samples;Min_cycle;Max_cycle;Signal;HPM_P1;HPM_P2
2023/11/08 00:01:19;;;;;;;0.00;0.00;;;;;;;8.78;72.42;100666.41;15707156;28;20486;-52
2023/11/08 00:08:54;;;;;;;0.10;0.10;;;;;;;8.63;73.12;100666.56;15667528;28;20095;-54
2023/11/08 00:16:29;;;;;;;0.00;0.00;;;;;;;9.06;71.80;100666.28;15663962;28;20486;-54
2023/11/08 00:24:05;;;;;;;0.00;0.00;;;;;;;8.74;73.15;100667.81;15682441;28;20040;-53
2023/11/08 00:31:39;;;;;;;0.00;0.00;;;;;;;8.66;73.33;100664.28;15680651;28;20056;-51
2023/11/08 00:39:15;;;;;;;0.55;0.55;;;;;;;8.71;73.06;100654.84;15660574;28;20037;-54
2023/11/08 00:46:51;;;;;;;0.05;0.05;;;;;;;9.04;71.65;100658.44;15662889;28;20139;-53
2023/11/08 00:54:25;;;;;;;0.10;0.10;;;;;;;8.96;72.13;100655.97;15662311;28;20056;-54
2023/11/08 01:02:00;;;;;;;0.00;0.00;;;;;;;8.91;72.51;100656.56;15678709;28;20494;-51
2023/11/08 01:09:33;;;;;;;0.10;0.10;;;;;;;8.84;72.55;100658.38;15660961;28;20456;-52
2023/11/08 01:17:10;;;;;;;0.00;0.00;;;;;;;9.02;71.43;100655.16;15678410;28;20111;-53
2023/11/08 01:24:48;;;;;;;0.00;0.00;;;;;;;8.65;72.49;100651.13;15658640;28;20094;-52
2023/11/08 01:32:23;;;;;;;0.00;0.00;;;;;;;8.50;72.55;100663.81;15657205;28;20087;-53
2023/11/08 01:39:56;;;;;;;0.00;0.00;;;;;;;8.37;73.00;100652.00;15659815;28;20041;-53
2023/11/08 01:47:33;;;;;;;0.00;0.00;;;;;;;8.17;73.68;100648.38;15657276;28;20059;-55
2023/11/08 01:55:10;;;;;;;0.00;0.00;;;;;;;8.32;72.59;100643.72;15655472;28;20049;-51
2023/11/08 02:02:46;;;;;;;0.00;0.00;;;;;;;8.22;73.03;100653.16;15655881;28;20053;-54
2023/11/08 02:10:20;;;;;;;0.00;0.00;;;;;;;8.11;72.71;100644.66;15655559;28;20049;-55
2023/11/08 02:17:56;;;;;;;0.00;0.00;;;;;;;8.14;72.74;100638.91;15654406;28;20460;-55
2023/11/08 02:25:31;;;;;;;0.00;0.00;;;;;;;7.95;73.46;100626.25;15651410;28;20490;-54
2023/11/08 02:33:07;;;;;;;0.00;0.00;;;;;;;7.91;73.65;100638.34;15647079;28;20136;-52
2023/11/08 02:40:43;;;;;;;0.15;0.15;;;;;;;7.79;74.53;100626.56;15667824;28;20304;-51
2023/11/08 02:48:17;;;;;;;0.17;0.17;;;;;;;7.67;74.63;100621.72;15648397;28;20204;-51
2023/11/08 02:55:52;;;;;;;0.00;0.00;;;;;;;7.51;75.15;100631.88;15665222;28;20041;-52
2023/11/08 03:03:25;;;;;;;0.03;0.03;;;;;;;7.37;75.46;100628.28;15666461;28;20144;-53
2023/11/08 03:11:00;;;;;;;0.00;0.00;;;;;;;7.52;74.78;100623.66;15683325;28;20068;-52
2023/11/08 03:18:33;;;;;;;0.00;0.00;;;;;;;7.40;75.25;100634.03;15670862;28;20123;-52
2023/11/08 03:26:10;;;;;;;0.00;0.00;;;;;;;7.05;77.50;100621.59;15665573;28;20096;-51
2023/11/08 03:33:43;;;;;;;0.00;0.00;;;;;;;7.54;75.39;100626.97;15684814;28;20056;-52
2023/11/08 03:41:18;;;;;;;3.83;1.45;;;;;;;7.29;76.54;100628.41;15682918;28;20521;-51
2023/11/08 03:48:54;;;;;;;0.00;0.00;;;;;;;7.28;77.01;100614.22;15682337;28;20049;-48
2023/11/08 03:56:30;;;;;;;0.00;0.00;;;;;;;7.22;76.81;100630.16;15681441;28;20041;-51
2023/11/08 04:04:06;;;;;;;0.00;0.00;;;;;;;7.66;75.97;100624.59;15678575;28;20478;-51
2023/11/08 04:11:42;;;;;;;0.03;0.03;;;;;;;7.32;76.80;100622.66;15677919;28;20036;-52
2023/11/08 04:19:15;;;;;;;1.65;0.38;;;;;;;7.80;75.31;100625.53;15677063;28;20379;-52
2023/11/08 04:26:53;;;;;;;0.00;0.00;;;;;;;7.17;77.21;100628.06;15670347;28;20405;-52
2023/11/08 04:34:26;;;;;;;0.00;0.00;;;;;;;7.41;76.50;100638.38;15677154;28;20033;-54
2023/11/08 04:42:01;;;;;;;0.00;0.00;;;;;;;7.63;75.99;100633.81;15676711;28;20057;-51
2023/11/08 04:49:35;;;;;;;0.00;0.00;;;;;;;8.00;74.81;100636.34;15675969;28;20057;-52
2023/11/08 04:57:16;;;;;;;0.00;0.00;;;;;;;7.75;75.56;100638.66;15657160;28;20308;-55
2023/11/08 05:04:49;;;;;;;0.00;0.00;;;;;;;7.98;74.74;100638.41;15650781;28;20225;-55
2023/11/08 05:12:24;;;;;;;0.08;0.08;;;;;;;7.56;76.18;100638.28;15675885;28;20044;-50
2023/11/08 05:19:58;;;;;;;0.00;0.00;;;;;;;7.70;75.98;100635.72;15675236;28;20035;-54
2023/11/08 05:27:33;;;;;;;0.00;0.00;;;;;;;7.68;75.97;100636.72;15655255;28;20099;-53
2023/11/08 05:35:07;;;;;;;0.00;0.00;;;;;;;7.54;76.21;100616.28;15669879;28;20038;-51
2023/11/08 05:42:45;;;;;;;0.20;0.20;;;;;;;7.71;75.67;100648.88;15671822;28;20148;-51
2023/11/08 05:50:19;;;;;;;0.00;0.00;;;;;;;8.19;74.39;100640.97;15645469;28;20072;-55
2023/11/08 05:57:58;;;;;;;0.00;0.00;;;;;;;8.05;75.34;100653.44;15603043;28;20576;-51
2023/11/08 06:05:31;;;;;;;0.00;0.00;;;;;;;7.91;75.13;100651.69;15611266;28;20065;-49
2023/11/08 06:13:06;;;;;;;2.10;1.10;;;;;;;8.27;73.99;100670.25;15612409;28;20072;-51
2023/11/08 06:20:39;;;;;;;0.00;0.00;;;;;;;8.29;74.13;100670.03;15612389;28;20280;-48
2023/11/08 06:28:14;;;;;;;0.57;0.15;;;;;;;8.47;73.41;100680.25;15593793;28;20465;-50
2023/11/08 06:35:47;;;;;;;0.00;0.00;;;;;;;8.01;76.15;100694.94;15592174;28;20391;-48
2023/11/08 06:43:22;;;;;;;;;;;;;;;8.31;76.58;100692.06;15596076;28;20046;-53
2023/11/08 06:50:56;;;;;;;0.00;0.00;;;;;;;8.16;78.18;100700.22;15610478;28;19950;-47
2023/11/08 06:58:31;;;;;;;0.25;0.25;;;;;;;8.04;78.76;100709.78;15593142;28;20038;-46
2023/11/08 07:06:06;;;;;;;0.28;0.28;;;;;;;8.17;80.17;100701.84;15610052;28;20046;-52
2023/11/08 07:13:42;;;;;;;0.00;0.00;;;;;;;8.09;79.47;100705.50;15610643;28;20053;-47
2023/11/08 07:21:19;;;;;;;0.98;0.32;;;;;;;8.23;79.25;100702.91;15614212;28;20485;-51
2023/11/08 07:28:53;;;;;;;0.10;0.10;;;;;;;8.49;78.25;100719.16;15618289;28;20080;-53
2023/11/08 07:36:29;;;;;;;0.47;0.30;;;;;;;8.44;78.10;100726.97;15621627;28;20459;-50
2023/11/08 07:44:05;;;;;;;0.00;0.00;;;;;;;8.59;78.11;100734.88;15618743;28;20051;-49
2023/11/08 07:51:39;;;;;;;0.00;0.00;;;;;;;9.10;76.11;100742.50;15639331;28;20068;-53
2023/11/08 07:59:14;;;;;;;0.00;0.00;;;;;;;8.87;76.39;100734.81;15679832;28;20285;-51
2023/11/08 08:06:47;;;;;;;0.73;0.73;;;;;;;9.12;75.96;100735.91;15644718;28;20095;-53
2023/11/08 08:14:22;;;;;;;0.00;0.00;;;;;;;9.36;75.58;100737.22;15677423;28;20051;-50
2023/11/08 08:21:58;;;;;;;0.00;0.00;;;;;;;9.87;73.85;100731.31;15673899;28;20045;-49
2023/11/08 08:29:33;;;;;;;0.00;0.00;;;;;;;10.00;72.31;100737.72;15679901;28;20128;-50
2023/11/08 08:37:07;;;;;;;0.00;0.00;;;;;;;9.79;72.39;100747.63;15678143;28;20045;-50
2023/11/08 08:44:43;;;;;;;0.00;0.00;;;;;;;9.31;74.28;100746.91;15675932;28;20417;-47
2023/11/08 08:52:17;;;;;;;0.00;0.00;;;;;;;9.89;72.27;100752.59;15615252;28;20057;-52
2023/11/08 08:59:53;;;;;;;0.00;0.00;;;;;;;10.98;69.93;100755.53;15605691;28;20049;-49
2023/11/08 09:07:26;;;;;;;0.00;0.00;;;;;;;11.23;67.41;100771.72;15618290;28;20045;-49
2023/11/08 09:15:02;;;;;;;0.00;0.00;;;;;;;11.44;67.45;100767.09;15612240;28;20069;-49
2023/11/08 09:22:36;;;;;;;0.08;0.08;;;;;;;11.17;67.74;100777.97;15611499;28;20494;-51
2023/11/08 09:30:12;;;;;;;0.00;0.00;;;;;;;10.78;69.01;100778.94;15603410;28;20037;-48
2023/11/08 09:37:45;;;;;;;0.00;0.00;;;;;;;10.89;67.12;100778.28;15617471;28;20042;-49
2023/11/08 09:45:25;;;;;;;0.00;0.00;;;;;;;11.25;68.71;100779.59;15609171;28;20491;-49
2023/11/08 09:52:59;;;;;;;0.10;0.10;;;;;;;10.59;68.73;100788.69;15605760;28;20049;-48
2023/11/08 10:00:35;;;;;;;0.35;0.35;;;;;;;10.43;68.74;100789.09;15612312;28;20073;-50
2023/11/08 10:08:11;;;;;;;0.10;0.08;;;;;;;10.55;68.14;100787.44;15612175;28;20049;-49
2023/11/08 10:15:56;;;;;;;0.00;0.00;;;;;;;11.40;65.70;100782.00;15612267;28;20487;-49
2023/11/08 10:23:29;;;;;;;0.00;0.00;;;;;;;11.49;66.31;100775.34;15594344;28;20052;-53
2023/11/08 10:31:04;;;;;;;0.00;0.00;;;;;;;11.10;66.65;100776.38;15611645;28;20465;-50
2023/11/08 10:38:39;;;;;;;0.00;0.00;;;;;;;11.26;66.21;100775.03;15595743;28;20037;-48
2023/11/08 10:46:14;;;;;;;0.55;0.55;;;;;;;11.19;65.52;100778.59;15613887;28;20120;-49
2023/11/08 10:53:47;;;;;;;0.00;0.00;;;;;;;10.69;66.67;100785.56;15616404;28;20171;-48
2023/11/08 11:01:25;;;;;;;0.00;0.00;;;;;;;10.50;66.93;100783.75;15625750;28;20049;-49
2023/11/08 11:09:03;;;;;;;0.00;0.00;;;;;;;11.02;65.42;100774.72;15617817;28;20301;-50
2023/11/08 11:16:44;;;;;;;0.00;0.00;;;;;;;11.05;65.03;100781.53;15615502;28;20383;-49
2023/11/08 11:24:39;;;;;;;0.52;0.52;;;;;;;10.86;65.70;100788.59;15603422;28;20133;-51
2023/11/08 11:32:37;;;;;;;1.85;0.47;;;;;;;10.77;66.20;100790.72;15623751;28;20236;-48
2023/11/08 11:40:15;;;;;;;0.00;0.00;;;;;;;11.02;63.78;100781.97;15622415;28;20073;-49
2023/11/08 11:47:53;;;;;;;0.00;0.00;;;;;;;11.09;64.04;100790.81;15631450;22;20049;-51
2023/11/08 11:55:27;;;;;;;0.00;0.00;;;;;;;10.95;64.77;100795.41;15673004;28;20068;-52
2023/11/08 12:03:03;;;;;;;;;;;;;;;11.34;63.92;100786.38;15657121;28;20051;-53
2023/11/08 12:10:37;;;;;;;0.00;0.00;;;;;;;11.33;63.64;100800.84;15660311;28;20451;-49
2023/11/08 12:18:13;;;;;;;0.00;0.00;;;;;;;11.04;64.05;100796.00;15653112;28;20041;-47
2023/11/08 12:25:47;;;;;;;0.60;0.38;;;;;;;11.04;64.22;100788.75;15602505;28;20084;-51
2023/11/08 12:33:22;;;;;;;0.00;0.00;;;;;;;11.06;63.18;100793.94;15645391;28;20140;-50
2023/11/08 12:41:07;;;;;;;0.00;0.00;;;;;;;11.64;62.39;100781.25;15660288;28;20053;-49
2023/11/08 12:48:41;;;;;;;0.00;0.00;;;;;;;11.17;61.81;100785.22;15629216;28;20041;-55
2023/11/08 12:56:15;;;;;;;1.27;0.22;;;;;;;11.55;61.95;100782.53;15617701;28;20041;-50
2023/11/08 13:03:50;;;;;;;0.00;0.00;;;;;;;11.31;62.15;100786.78;15653652;28;20396;-51
2023/11/08 13:11:23;;;;;;;0.00;0.00;;;;;;;11.17;62.30;100787.88;15644344;28;20045;-52
2023/11/08 13:18:59;;;;;;;0.00;0.00;;;;;;;11.87;61.36;100780.72;15613239;28;20041;-52
2023/11/08 13:26:32;;;;;;;0.00;0.00;;;;;;;11.62;61.96;100791.41;15598246;28;20048;-52
2023/11/08 13:34:07;;;;;;;;;;;;;;;11.33;62.39;100794.63;15615798;28;20111;-53
2023/11/08 13:41:40;;;;;;;0.00;0.00;;;;;;;11.74;60.47;100786.97;15612762;28;20289;-52
2023/11/08 13:49:15;;;;;;;0.00;0.00;;;;;;;11.23;62.44;100792.41;15608159;28;20076;-53
2023/11/08 13:56:49;;;;;;;0.00;0.00;;;;;;;11.45;61.98;100801.81;15568559;28;20050;-51
2023/11/08 14:04:24;;;;;;;;;;;;;;;10.88;63.16;100800.81;15531984;28;20054;-52
2023/11/08 14:11:58;;;;;;;0.20;0.20;;;;;;;10.92;62.44;100796.66;15585498;28;20104;-49
2023/11/08 14:19:32;;;;;;;0.00;0.00;;;;;;;11.40;60.79;100787.38;15594733;28;20052;-51
2023/11/08 14:27:07;;;;;;;0.00;0.00;;;;;;;11.46;60.00;100792.72;15604456;28;20037;-51
2023/11/08 14:34:42;;;;;;;0.00;0.00;;;;;;;11.10;61.12;100789.78;15587779;28;20045;-47
2023/11/08 14:42:16;;;;;;;1.35;0.25;;;;;;;10.98;61.08;100792.31;15585415;28;20473;-50
2023/11/08 14:49:52;;;;;;;0.00;0.00;;;;;;;11.00;61.19;100795.59;15609883;28;20063;-53
2023/11/08 14:57:26;;;;;;;0.22;0.22;;;;;;;11.15;60.63;100789.97;15676160;28;20383;-52
2023/11/08 15:05:02;;;;;;;0.00;0.00;;;;;;;11.21;60.33;100778.38;15658748;28;20049;-53
2023/11/08 15:12:36;;;;;;;0.55;0.55;;;;;;;11.05;60.55;100792.25;15666170;28;20045;-50
2023/11/08 15:20:12;;;;;;;0.45;0.38;;;;;;;10.63;62.09;100786.38;15670086;28;20048;-52
2023/11/08 15:27:46;;;;;;;0.00;0.00;;;;;;;10.51;61.54;100802.31;15662984;28;20524;-51
2023/11/08 15:35:20;;;;;;;0.00;0.00;;;;;;;10.46;62.50;100786.00;15625771;28;20157;-54
2023/11/08 15:42:54;;;;;;;1.00;0.93;;;;;;;10.45;62.61;100793.25;15640622;28;21757;-51
2023/11/08 15:50:29;;;;;;;0.65;0.55;;;;;;;9.96;63.97;100796.28;15625296;28;20033;-50
2023/11/08 15:58:03;;;;;;;2.83;0.43;;;;;;;9.69;65.36;100792.75;15624227;28;20478;-49
2023/11/08 16:05:38;;;;;;;0.00;0.00;;;;;;;10.10;64.24;100787.22;15632328;28;20068;-54
2023/11/08 16:13:12;;;;;;;0.00;0.00;;;;;;;9.94;64.69;100796.50;15637333;28;20052;-52
2023/11/08 16:20:49;;;;;;;0.00;0.00;;;;;;;9.85;65.27;100797.72;15613654;28;20073;-51
2023/11/08 16:28:23;;;;;;;0.00;0.00;;;;;;;9.91;65.09;100796.09;15624079;28;20046;-51
2023/11/08 16:35:58;;;;;;;0.00;0.00;;;;;;;9.94;64.70;100801.88;15599715;28;20049;-52
2023/11/08 16:43:32;;;;;;;0.00;0.00;;;;;;;9.75;65.69;100808.03;15631996;28;20045;-55
2023/11/08 16:51:07;;;;;;;0.15;0.15;;;;;;;9.67;65.63;100803.69;15604988;28;20041;-48
2023/11/08 16:58:41;;;;;;;0.20;0.20;;;;;;;9.14;66.44;100776.72;15584197;28;20038;-53
2023/11/08 17:06:15;;;;;;;0.00;0.00;;;;;;;9.57;66.15;100803.25;15616120;28;20041;-48
2023/11/08 17:13:49;;;;;;;0.00;0.00;;;;;;;9.56;66.42;100804.28;15621556;28;20041;-52
2023/11/08 17:21:23;;;;;;;0.00;0.00;;;;;;;9.16;68.05;100806.78;15613000;28;20391;-49
2023/11/08 17:28:58;;;;;;;0.00;0.00;;;;;;;9.01;68.95;100799.94;15606036;28;20128;-53
2023/11/08 17:36:32;;;;;;;0.10;0.10;;;;;;;8.86;69.39;100808.06;15634659;28;20103;-47
2023/11/08 17:44:06;;;;;;;0.10;0.10;;;;;;;9.21;68.10;100816.91;15674793;28;20037;-50
2023/11/08 17:51:41;;;;;;;0.00;0.00;;;;;;;9.37;67.53;100803.19;15652186;22;20049;-49
2023/11/08 17:59:15;;;;;;;0.00;0.00;;;;;;;9.25;67.68;100801.28;15589169;28;20452;-54
2023/11/08 18:06:49;;;;;;;;;;;;;;;9.15;68.25;100802.47;15607309;28;20037;-50
2023/11/08 18:14:24;;;;;;;0.85;0.65;;;;;;;9.19;67.99;100803.72;15605758;28;20073;-54
2023/11/08 18:22:00;;;;;;;0.00;0.00;;;;;;;9.05;68.46;100809.22;15602650;28;20112;-51
2023/11/08 18:29:34;;;;;;;0.00;0.00;;;;;;;9.00;68.75;100808.97;15605724;28;20048;-52
2023/11/08 18:37:08;;;;;;;0.05;0.05;;;;;;;9.12;68.43;100810.06;15607318;28;20502;-50
2023/11/08 18:44:42;;;;;;;0.00;0.00;;;;;;;9.50;66.73;100801.56;15596403;28;20065;-56
2023/11/08 18:52:16;;;;;;;0.08;0.08;;;;;;;9.53;66.68;100793.13;15643074;28;20460;-50
2023/11/08 18:59:49;;;;;;;0.47;0.47;;;;;;;9.27;66.99;100800.03;15667149;28;20072;-56
2023/11/08 19:07:24;;;;;;;2.05;1.85;;;;;;;9.66;65.55;100791.31;15666827;28;20128;-57
2023/11/08 19:14:58;;;;;;;0.17;0.17;;;;;;;9.51;66.05;100787.13;15666406;28;20472;-52
2023/11/08 19:22:32;;;;;;;;;;;;;;;9.40;66.31;100785.88;15678704;28;20060;-55
2023/11/08 19:30:08;;;;;;;0.00;0.00;;;;;;;9.48;66.01;100784.88;15664340;28;19921;-58
2023/11/08 19:37:43;;;;;;;0.10;0.10;;;;;;;9.60;65.75;100778.69;15676973;28;20041;-56
2023/11/08 19:45:16;;;;;;;0.00;0.00;;;;;;;9.37;65.97;100767.50;15675553;28;20045;-53
2023/11/08 19:52:51;;;;;;;0.08;0.08;;;;;;;9.36;66.10;100761.31;15680828;28;20045;-58
2023/11/08 20:00:24;;;;;;;0.00;0.00;;;;;;;9.12;66.45;100768.03;15677408;28;20041;-55
2023/11/08 20:07:59;;;;;;;;;;;;;;;8.87;67.52;100767.75;15661795;28;20481;-51
2023/11/08 20:15:32;;;;;;;0.00;0.00;;;;;;;8.94;67.00;100771.25;15666977;28;19990;-51
2023/11/08 20:23:08;;;;;;;0.00;0.00;;;;;;;8.99;66.81;100757.28;15632905;28;20526;-56
2023/11/08 20:30:42;;;;;;;1.00;0.45;;;;;;;8.71;67.44;100741.28;15668081;28;20048;-54
2023/11/08 20:38:17;;;;;;;;;;;;;;;8.57;68.62;100732.38;15655538;28;20045;-49
2023/11/08 20:45:50;;;;;;;0.00;0.00;;;;;;;8.71;67.12;100711.84;15670442;28;20265;-53
2023/11/08 20:53:27;;;;;;;0.00;0.00;;;;;;;8.56;68.00;100721.88;15648044;28;20040;-59
2023/11/08 21:01:01;;;;;;;0.00;0.00;;;;;;;8.68;66.98;100721.13;15623036;28;20046;-55
2023/11/08 21:08:39;;;;;;;0.10;0.10;;;;;;;8.23;68.42;100718.97;15601105;28;20127;-50
2023/11/08 21:16:12;;;;;;;0.38;0.28;;;;;;;8.22;68.11;100714.66;15590370;28;20057;-52
2023/11/08 21:23:48;;;;;;;0.00;0.00;;;;;;;8.27;67.71;100701.50;15613855;28;20498;-51
2023/11/08 21:31:21;;;;;;;0.10;0.10;;;;;;;8.03;67.54;100702.78;15592400;28;20128;-49
2023/11/08 21:38:56;;;;;;;0.00;0.00;;;;;;;8.02;67.12;100688.59;15609239;28;20414;-54
2023/11/08 21:46:29;;;;;;;0.00;0.00;;;;;;;7.99;66.40;100678.28;15609555;28;20049;-51
2023/11/08 21:54:04;;;;;;;0.15;0.15;;;;;;;7.85;67.43;100671.19;15659398;28;20211;-57
2023/11/08 22:01:43;;;;;;;0.20;0.10;;;;;;;7.65;68.15;100660.34;15647072;28;20052;-56
2023/11/08 22:09:19;;;;;;;0.00;0.00;;;;;;;7.35;68.48;100632.97;15649933;28;20037;-49
2023/11/08 22:16:52;;;;;;;0.00;0.00;;;;;;;7.84;67.31;100640.16;15668436;28;20065;-57
2023/11/08 22:24:27;;;;;;;0.10;0.10;;;;;;;7.80;67.69;100633.53;15649837;28;20409;-55
2023/11/08 22:32:01;;;;;;;0.47;0.47;;;;;;;7.40;69.30;100619.84;15660620;28;20057;-52
2023/11/08 22:39:36;;;;;;;0.00;0.00;;;;;;;7.64;68.53;100610.59;15650352;28;20111;-49
2023/11/08 22:47:09;;;;;;;0.00;0.00;;;;;;;7.45;69.52;100609.41;15671523;28;20058;-56
2023/11/08 22:54:44;;;;;;;0.00;0.00;;;;;;;7.04;70.98;100593.25;15679253;28;20127;-48
2023/11/08 23:02:18;;;;;;;0.00;0.00;;;;;;;7.41;69.28;100587.66;15663875;28;20048;-51
2023/11/08 23:09:53;;;;;;;0.08;0.08;;;;;;;7.31;70.16;100584.44;15661448;28;20136;-48
2023/11/08 23:17:27;;;;;;;0.00;0.00;;;;;;;7.32;69.77;100567.44;15644808;28;20128;-57
2023/11/08 23:25:02;;;;;;;0.00;0.00;;;;;;;7.55;69.02;100572.50;15670180;28;20037;-54
2023/11/08 23:32:35;;;;;;;0.00;0.00;;;;;;;7.45;69.31;100565.88;15677278;28;20462;-54
2023/11/08 23:40:10;;;;;;;;;;;;;;;7.27;69.63;100529.78;15675736;28;20049;-48
2023/11/08 23:47:43;;;;;;;0.35;0.20;;;;;;;7.05;70.93;100547.69;15676326;28;20370;-54
2023/11/08 23:55:19;;;;;;;0.10;0.10;;;;;;;7.41;69.65;100544.91;15658224;28;20049;-51
